createdAt,value
2023-05-06T00:00:35.629Z,53
2023-05-06T00:20:34.817Z,54
2023-05-06T00:40:34.916Z,54
2023-05-06T01:00:39.295Z,53
2023-05-06T01:20:35.397Z,54
2023-05-06T01:40:35.665Z,53
2023-05-06T02:00:36.185Z,54
2023-05-06T02:20:36.882Z,54
2023-05-06T02:40:38.299Z,53
2023-05-06T03:00:38.873Z,53
2023-05-06T03:20:35.218Z,53
2023-05-06T03:40:35.784Z,53
2023-05-06T04:00:35.693Z,54
2023-05-06T04:20:54.079Z,54
2023-05-06T04:40:54.179Z,53
2023-05-06T05:00:52.261Z,53
2023-05-06T05:20:53.188Z,53
2023-05-06T05:40:54.315Z,53
2023-05-06T06:00:53.314Z,53
2023-05-06T06:20:57.059Z,53
2023-05-06T06:40:55.528Z,54
2023-05-06T07:00:54.878Z,55
2023-05-06T07:20:53.195Z,56
2023-05-06T07:40:52.508Z,56
2023-05-06T08:00:52.677Z,56
2023-05-06T08:21:00.898Z,56
2023-05-06T08:40:58.613Z,55
2023-05-06T09:00:57.206Z,57
2023-05-06T09:20:53.648Z,56
2023-05-06T09:40:52.936Z,61
2023-05-06T10:00:52.552Z,59
2023-05-06T10:20:52.560Z,58
2023-05-06T10:40:53.841Z,58
2023-05-06T11:00:58.838Z,56
2023-05-06T11:20:52.570Z,58
2023-05-06T11:40:59.582Z,56
2023-05-06T12:00:54.955Z,57
2023-05-06T12:20:58.538Z,56
2023-05-06T12:40:58.829Z,56
2023-05-06T13:00:56.893Z,56
2023-05-06T13:20:56.485Z,55
2023-05-06T13:40:53.095Z,56
2023-05-06T14:00:58.065Z,54
2023-05-06T14:20:53.552Z,55
2023-05-06T14:41:00.045Z,55
2023-05-06T15:00:53.071Z,56
2023-05-06T15:20:56.866Z,55
2023-05-06T15:40:53.746Z,55
2023-05-06T16:00:51.682Z,54
2023-05-06T16:20:58.840Z,54
2023-05-06T16:40:53.486Z,55
2023-05-06T17:00:52.948Z,54
2023-05-06T17:21:13.246Z,52
2023-05-06T17:40:55.899Z,54
2023-05-06T18:00:54.414Z,54
2023-05-06T18:20:57.395Z,56
2023-05-06T18:40:58.366Z,56
2023-05-06T19:00:36.807Z,55
2023-05-06T19:20:35.480Z,54
2023-05-06T19:40:35.789Z,53
2023-05-06T20:00:36.820Z,52
2023-05-06T20:20:38.672Z,51
2023-05-06T20:40:35.343Z,52
2023-05-06T21:00:35.907Z,52
2023-05-06T21:20:34.788Z,54
2023-05-06T21:40:35.670Z,54
2023-05-06T22:00:49.237Z,55
2023-05-06T22:20:35.410Z,55
2023-05-06T22:40:35.894Z,55
2023-05-06T23:00:35.061Z,55
2023-05-06T23:20:38.792Z,54
2023-05-06T23:40:39.066Z,55
